sensor_id;sensor_type;location;lat;lon;timestamp;temperature;humidity
8132;DHT22;4107;49.212;9.198;2022-08-19T00:00:25;22.40;98.30
8132;DHT22;4107;49.212;9.198;2022-08-19T00:02:51;22.40;98.30
8132;DHT22;4107;49.212;9.198;2022-08-19T00:05:17;22.40;98.40
8132;DHT22;4107;49.212;9.198;2022-08-19T00:07:45;22.40;98.60
8132;DHT22;4107;49.212;9.198;2022-08-19T00:10:12;22.40;98.30
8132;DHT22;4107;49.212;9.198;2022-08-19T00:12:38;22.40;98.40
8132;DHT22;4107;49.212;9.198;2022-08-19T00:15:06;22.40;98.50
8132;DHT22;4107;49.212;9.198;2022-08-19T00:17:32;22.40;98.50
8132;DHT22;4107;49.212;9.198;2022-08-19T00:19:58;22.40;98.60
8132;DHT22;4107;49.212;9.198;2022-08-19T00:22:23;22.40;98.70
8132;DHT22;4107;49.212;9.198;2022-08-19T00:24:49;22.40;98.80
8132;DHT22;4107;49.212;9.198;2022-08-19T00:27:15;22.30;98.90
8132;DHT22;4107;49.212;9.198;2022-08-19T00:29:41;22.40;98.90
8132;DHT22;4107;49.212;9.198;2022-08-19T00:32:07;22.30;99.00
8132;DHT22;4107;49.212;9.198;2022-08-19T00:34:32;22.30;99.00
8132;DHT22;4107;49.212;9.198;2022-08-19T00:36:58;22.40;98.90
8132;DHT22;4107;49.212;9.198;2022-08-19T00:39:24;22.40;99.10
8132;DHT22;4107;49.212;9.198;2022-08-19T00:41:50;22.40;99.00
8132;DHT22;4107;49.212;9.198;2022-08-19T00:44:22;22.40;98.90
8132;DHT22;4107;49.212;9.198;2022-08-19T00:46:50;22.40;98.90
8132;DHT22;4107;49.212;9.198;2022-08-19T00:49:20;22.40;99.10
8132;DHT22;4107;49.212;9.198;2022-08-19T00:51:55;22.40;99.10
8132;DHT22;4107;49.212;9.198;2022-08-19T00:54:23;22.40;99.10
8132;DHT22;4107;49.212;9.198;2022-08-19T00:56:49;22.30;99.10
8132;DHT22;4107;49.212;9.198;2022-08-19T00:59:16;22.30;99.20
8132;DHT22;4107;49.212;9.198;2022-08-19T01:01:43;22.30;99.30
8132;DHT22;4107;49.212;9.198;2022-08-19T01:04:09;22.30;99.20
8132;DHT22;4107;49.212;9.198;2022-08-19T01:06:37;22.40;99.10
8132;DHT22;4107;49.212;9.198;2022-08-19T01:09:04;22.30;99.00
8132;DHT22;4107;49.212;9.198;2022-08-19T01:11:31;22.30;99.10
8132;DHT22;4107;49.212;9.198;2022-08-19T01:13:58;22.30;99.20
8132;DHT22;4107;49.212;9.198;2022-08-19T01:16:27;22.30;99.30
8132;DHT22;4107;49.212;9.198;2022-08-19T01:18:54;22.30;99.30
8132;DHT22;4107;49.212;9.198;2022-08-19T01:21:42;22.30;99.40
8132;DHT22;4107;49.212;9.198;2022-08-19T01:24:09;22.30;99.20
8132;DHT22;4107;49.212;9.198;2022-08-19T01:26:40;22.30;99.20
8132;DHT22;4107;49.212;9.198;2022-08-19T01:29:08;22.30;99.40
8132;DHT22;4107;49.212;9.198;2022-08-19T01:31:34;22.30;99.30
8132;DHT22;4107;49.212;9.198;2022-08-19T01:34:01;22.30;99.40
8132;DHT22;4107;49.212;9.198;2022-08-19T01:36:40;22.30;99.50
8132;DHT22;4107;49.212;9.198;2022-08-19T01:39:11;22.20;99.60
8132;DHT22;4107;49.212;9.198;2022-08-19T01:41:37;22.30;99.70
8132;DHT22;4107;49.212;9.198;2022-08-19T01:44:05;22.20;99.70
8132;DHT22;4107;49.212;9.198;2022-08-19T01:46:31;22.20;99.80
8132;DHT22;4107;49.212;9.198;2022-08-19T01:48:57;22.20;99.80
8132;DHT22;4107;49.212;9.198;2022-08-19T01:51:23;22.10;99.80
8132;DHT22;4107;49.212;9.198;2022-08-19T01:53:50;22.20;99.80
8132;DHT22;4107;49.212;9.198;2022-08-19T01:56:16;22.20;99.90
8132;DHT22;4107;49.212;9.198;2022-08-19T01:58:47;22.20;99.90
8132;DHT22;4107;49.212;9.198;2022-08-19T02:01:15;22.20;99.90
8132;DHT22;4107;49.212;9.198;2022-08-19T02:03:41;22.10;99.90
8132;DHT22;4107;49.212;9.198;2022-08-19T02:06:07;22.10;99.90
8132;DHT22;4107;49.212;9.198;2022-08-19T02:08:35;22.10;99.90
8132;DHT22;4107;49.212;9.198;2022-08-19T02:11:02;22.10;99.90
8132;DHT22;4107;49.212;9.198;2022-08-19T02:13:28;22.00;99.90
8132;DHT22;4107;49.212;9.198;2022-08-19T02:15:54;22.00;99.90
8132;DHT22;4107;49.212;9.198;2022-08-19T02:18:20;22.00;99.90
8132;DHT22;4107;49.212;9.198;2022-08-19T02:20:46;22.00;99.90
8132;DHT22;4107;49.212;9.198;2022-08-19T02:23:15;22.00;99.90
8132;DHT22;4107;49.212;9.198;2022-08-19T02:25:41;21.90;99.90
8132;DHT22;4107;49.212;9.198;2022-08-19T02:28:07;22.00;99.90
8132;DHT22;4107;49.212;9.198;2022-08-19T02:30:33;21.90;99.90
8132;DHT22;4107;49.212;9.198;2022-08-19T02:32:58;22.00;99.90
8132;DHT22;4107;49.212;9.198;2022-08-19T02:35:25;21.90;99.90
8132;DHT22;4107;49.212;9.198;2022-08-19T02:37:51;22.00;99.90
8132;DHT22;4107;49.212;9.198;2022-08-19T02:40:35;22.00;99.90
8132;DHT22;4107;49.212;9.198;2022-08-19T02:43:05;22.00;99.90
8132;DHT22;4107;49.212;9.198;2022-08-19T02:45:38;22.00;99.90
8132;DHT22;4107;49.212;9.198;2022-08-19T02:48:07;21.90;99.90
8132;DHT22;4107;49.212;9.198;2022-08-19T02:50:40;21.90;99.90
8132;DHT22;4107;49.212;9.198;2022-08-19T02:53:05;21.80;99.90
8132;DHT22;4107;49.212;9.198;2022-08-19T02:55:32;21.80;99.90
8132;DHT22;4107;49.212;9.198;2022-08-19T02:57:58;21.80;99.90
8132;DHT22;4107;49.212;9.198;2022-08-19T03:00:25;21.80;99.90
8132;DHT22;4107;49.212;9.198;2022-08-19T03:02:52;21.80;99.90
8132;DHT22;4107;49.212;9.198;2022-08-19T03:05:17;21.80;99.90
8132;DHT22;4107;49.212;9.198;2022-08-19T03:07:43;21.80;99.90
8132;DHT22;4107;49.212;9.198;2022-08-19T03:10:09;21.80;99.90
8132;DHT22;4107;49.212;9.198;2022-08-19T03:12:37;21.80;99.90
8132;DHT22;4107;49.212;9.198;2022-08-19T03:15:07;21.70;99.90
8132;DHT22;4107;49.212;9.198;2022-08-19T03:17:34;21.70;99.90
8132;DHT22;4107;49.212;9.198;2022-08-19T03:19:59;21.70;99.90
8132;DHT22;4107;49.212;9.198;2022-08-19T03:22:25;21.70;99.90
8132;DHT22;4107;49.212;9.198;2022-08-19T03:24:51;21.70;99.90
8132;DHT22;4107;49.212;9.198;2022-08-19T03:27:16;21.80;99.90
8132;DHT22;4107;49.212;9.198;2022-08-19T03:29:43;21.80;99.90
8132;DHT22;4107;49.212;9.198;2022-08-19T03:32:10;21.70;99.90
8132;DHT22;4107;49.212;9.198;2022-08-19T03:34:37;21.70;99.90
8132;DHT22;4107;49.212;9.198;2022-08-19T03:37:06;21.70;99.90
8132;DHT22;4107;49.212;9.198;2022-08-19T03:39:32;21.70;99.90
8132;DHT22;4107;49.212;9.198;2022-08-19T03:41:57;21.60;99.90
8132;DHT22;4107;49.212;9.198;2022-08-19T03:44:25;21.60;99.90
8132;DHT22;4107;49.212;9.198;2022-08-19T03:46:56;21.60;99.90
8132;DHT22;4107;49.212;9.198;2022-08-19T03:49:24;21.70;99.90
8132;DHT22;4107;49.212;9.198;2022-08-19T03:51:51;21.70;99.90
8132;DHT22;4107;49.212;9.198;2022-08-19T03:54:21;21.80;99.90
8132;DHT22;4107;49.212;9.198;2022-08-19T03:56:49;21.80;99.90
8132;DHT22;4107;49.212;9.198;2022-08-19T03:59:26;21.70;99.90
8132;DHT22;4107;49.212;9.198;2022-08-19T04:01:57;21.80;99.90
8132;DHT22;4107;49.212;9.198;2022-08-19T04:04:24;21.70;99.90
8132;DHT22;4107;49.212;9.198;2022-08-19T04:06:50;21.80;99.90
8132;DHT22;4107;49.212;9.198;2022-08-19T04:09:17;21.80;99.90
8132;DHT22;4107;49.212;9.198;2022-08-19T04:11:48;21.80;99.90
8132;DHT22;4107;49.212;9.198;2022-08-19T04:14:17;21.80;99.90
8132;DHT22;4107;49.212;9.198;2022-08-19T04:16:44;21.80;99.90
8132;DHT22;4107;49.212;9.198;2022-08-19T04:19:11;21.80;99.90
8132;DHT22;4107;49.212;9.198;2022-08-19T04:21:37;21.70;99.90
8132;DHT22;4107;49.212;9.198;2022-08-19T04:24:03;21.70;99.90
8132;DHT22;4107;49.212;9.198;2022-08-19T04:26:33;21.70;99.90
8132;DHT22;4107;49.212;9.198;2022-08-19T04:29:05;21.60;99.90
8132;DHT22;4107;49.212;9.198;2022-08-19T04:31:32;21.50;99.90
8132;DHT22;4107;49.212;9.198;2022-08-19T04:34:03;21.50;99.90
8132;DHT22;4107;49.212;9.198;2022-08-19T04:36:31;21.40;99.90
8132;DHT22;4107;49.212;9.198;2022-08-19T04:38:59;21.40;99.90
8132;DHT22;4107;49.212;9.198;2022-08-19T04:41:26;21.40;99.90
8132;DHT22;4107;49.212;9.198;2022-08-19T04:44:11;21.40;99.90
8132;DHT22;4107;49.212;9.198;2022-08-19T04:46:36;21.30;99.90
8132;DHT22;4107;49.212;9.198;2022-08-19T04:49:04;21.30;99.90
8132;DHT22;4107;49.212;9.198;2022-08-19T04:51:31;21.30;99.90
8132;DHT22;4107;49.212;9.198;2022-08-19T04:53:57;21.20;99.90
8132;DHT22;4107;49.212;9.198;2022-08-19T04:56:24;21.20;99.90
8132;DHT22;4107;49.212;9.198;2022-08-19T04:58:52;21.20;99.90
8132;DHT22;4107;49.212;9.198;2022-08-19T05:01:20;21.20;99.90
8132;DHT22;4107;49.212;9.198;2022-08-19T05:03:46;21.20;99.90
8132;DHT22;4107;49.212;9.198;2022-08-19T05:06:16;21.30;99.90
8132;DHT22;4107;49.212;9.198;2022-08-19T05:08:43;21.40;99.90
8132;DHT22;4107;49.212;9.198;2022-08-19T05:11:31;21.50;99.90
8132;DHT22;4107;49.212;9.198;2022-08-19T05:13:57;21.60;99.90
8132;DHT22;4107;49.212;9.198;2022-08-19T05:16:24;21.70;99.90
8132;DHT22;4107;49.212;9.198;2022-08-19T05:18:51;21.80;99.90
8132;DHT22;4107;49.212;9.198;2022-08-19T05:21:36;21.90;99.90
8132;DHT22;4107;49.212;9.198;2022-08-19T05:24:22;22.00;99.90
8132;DHT22;4107;49.212;9.198;2022-08-19T05:26:50;22.00;99.90
8132;DHT22;4107;49.212;9.198;2022-08-19T05:29:18;22.10;99.90
8132;DHT22;4107;49.212;9.198;2022-08-19T05:31:45;22.20;99.90
8132;DHT22;4107;49.212;9.198;2022-08-19T05:34:11;22.30;99.90
8132;DHT22;4107;49.212;9.198;2022-08-19T05:36:40;22.30;99.90
8132;DHT22;4107;49.212;9.198;2022-08-19T05:39:08;22.30;99.90
8132;DHT22;4107;49.212;9.198;2022-08-19T05:41:34;22.50;99.90
8132;DHT22;4107;49.212;9.198;2022-08-19T05:44:04;22.50;99.90
8132;DHT22;4107;49.212;9.198;2022-08-19T05:46:38;22.50;99.90
8132;DHT22;4107;49.212;9.198;2022-08-19T05:49:08;22.50;99.90
8132;DHT22;4107;49.212;9.198;2022-08-19T05:51:36;22.50;99.90
8132;DHT22;4107;49.212;9.198;2022-08-19T05:54:04;22.60;99.90
8132;DHT22;4107;49.212;9.198;2022-08-19T05:56:30;22.60;99.90
8132;DHT22;4107;49.212;9.198;2022-08-19T05:58:57;22.60;99.90
8132;DHT22;4107;49.212;9.198;2022-08-19T06:01:24;22.70;99.90
8132;DHT22;4107;49.212;9.198;2022-08-19T06:03:51;22.80;99.90
8132;DHT22;4107;49.212;9.198;2022-08-19T06:06:18;22.80;99.90
8132;DHT22;4107;49.212;9.198;2022-08-19T06:08:44;22.90;99.90
8132;DHT22;4107;49.212;9.198;2022-08-19T06:11:33;22.80;99.90
8132;DHT22;4107;49.212;9.198;2022-08-19T06:14:02;22.90;99.90
8132;DHT22;4107;49.212;9.198;2022-08-19T06:16:28;22.90;99.90
8132;DHT22;4107;49.212;9.198;2022-08-19T06:18:55;22.90;99.90
8132;DHT22;4107;49.212;9.198;2022-08-19T06:21:26;22.90;99.90
8132;DHT22;4107;49.212;9.198;2022-08-19T06:23:52;22.90;99.90
8132;DHT22;4107;49.212;9.198;2022-08-19T06:26:19;22.90;99.90
8132;DHT22;4107;49.212;9.198;2022-08-19T06:28:46;22.90;99.90
8132;DHT22;4107;49.212;9.198;2022-08-19T06:31:14;22.90;99.90
8132;DHT22;4107;49.212;9.198;2022-08-19T06:33:42;22.90;99.90
8132;DHT22;4107;49.212;9.198;2022-08-19T06:36:16;22.90;99.90
8132;DHT22;4107;49.212;9.198;2022-08-19T06:38:42;22.90;99.90
8132;DHT22;4107;49.212;9.198;2022-08-19T06:41:07;22.90;99.90
8132;DHT22;4107;49.212;9.198;2022-08-19T06:43:33;22.90;99.90
8132;DHT22;4107;49.212;9.198;2022-08-19T06:45:59;22.90;99.90
8132;DHT22;4107;49.212;9.198;2022-08-19T06:48:24;22.90;99.90
8132;DHT22;4107;49.212;9.198;2022-08-19T06:50:50;23.00;99.90
8132;DHT22;4107;49.212;9.198;2022-08-19T06:53:17;23.10;99.90
8132;DHT22;4107;49.212;9.198;2022-08-19T06:55:45;23.10;99.90
8132;DHT22;4107;49.212;9.198;2022-08-19T06:58:10;23.30;99.90
8132;DHT22;4107;49.212;9.198;2022-08-19T07:00:36;23.30;99.90
8132;DHT22;4107;49.212;9.198;2022-08-19T07:03:03;23.10;99.90
8132;DHT22;4107;49.212;9.198;2022-08-19T07:05:28;23.10;99.90
8132;DHT22;4107;49.212;9.198;2022-08-19T07:07:54;23.20;99.90
8132;DHT22;4107;49.212;9.198;2022-08-19T07:10:19;23.20;99.90
8132;DHT22;4107;49.212;9.198;2022-08-19T07:12:45;23.20;99.90
8132;DHT22;4107;49.212;9.198;2022-08-19T07:15:21;23.30;99.90
8132;DHT22;4107;49.212;9.198;2022-08-19T07:17:46;23.30;99.90
8132;DHT22;4107;49.212;9.198;2022-08-19T07:20:12;23.30;99.90
8132;DHT22;4107;49.212;9.198;2022-08-19T07:22:38;23.30;99.90
8132;DHT22;4107;49.212;9.198;2022-08-19T07:25:07;23.30;99.90
8132;DHT22;4107;49.212;9.198;2022-08-19T07:27:36;23.30;99.90
8132;DHT22;4107;49.212;9.198;2022-08-19T07:30:03;23.40;99.90
8132;DHT22;4107;49.212;9.198;2022-08-19T07:32:30;23.30;99.90
8132;DHT22;4107;49.212;9.198;2022-08-19T07:34:56;23.50;99.90
8132;DHT22;4107;49.212;9.198;2022-08-19T07:37:21;23.70;99.90
8132;DHT22;4107;49.212;9.198;2022-08-19T07:39:47;23.90;99.90
8132;DHT22;4107;49.212;9.198;2022-08-19T07:42:16;24.10;99.90
8132;DHT22;4107;49.212;9.198;2022-08-19T07:44:46;24.30;99.90
8132;DHT22;4107;49.212;9.198;2022-08-19T07:49:40;24.70;98.90
8132;DHT22;4107;49.212;9.198;2022-08-19T07:52:09;24.80;99.10
8132;DHT22;4107;49.212;9.198;2022-08-19T07:57:13;25.10;98.30
8132;DHT22;4107;49.212;9.198;2022-08-19T07:59:38;25.30;98.80
8132;DHT22;4107;49.212;9.198;2022-08-19T08:02:05;25.50;97.80
8132;DHT22;4107;49.212;9.198;2022-08-19T08:04:31;25.50;98.10
8132;DHT22;4107;49.212;9.198;2022-08-19T08:07:16;25.50;98.10
8132;DHT22;4107;49.212;9.198;2022-08-19T08:10:00;25.60;98.10
8132;DHT22;4107;49.212;9.198;2022-08-19T08:12:43;25.50;98.00
8132;DHT22;4107;49.212;9.198;2022-08-19T08:15:13;25.50;98.00
8132;DHT22;4107;49.212;9.198;2022-08-19T08:17:42;25.50;98.10
8132;DHT22;4107;49.212;9.198;2022-08-19T08:20:08;25.40;98.30
8132;DHT22;4107;49.212;9.198;2022-08-19T08:22:34;25.40;98.00
8132;DHT22;4107;49.212;9.198;2022-08-19T08:25:21;25.50;98.30
8132;DHT22;4107;49.212;9.198;2022-08-19T08:27:49;25.50;97.80
8132;DHT22;4107;49.212;9.198;2022-08-19T08:30:21;25.50;97.90
8132;DHT22;4107;49.212;9.198;2022-08-19T08:32:48;25.50;97.90
8132;DHT22;4107;49.212;9.198;2022-08-19T08:35:17;25.50;97.80
8132;DHT22;4107;49.212;9.198;2022-08-19T08:37:44;25.60;98.10
8132;DHT22;4107;49.212;9.198;2022-08-19T08:40:26;25.60;98.20
8132;DHT22;4107;49.212;9.198;2022-08-19T08:45:56;25.70;98.00
8132;DHT22;4107;49.212;9.198;2022-08-19T08:48:47;25.60;97.70
8132;DHT22;4107;49.212;9.198;2022-08-19T08:51:28;25.60;97.90
8132;DHT22;4107;49.212;9.198;2022-08-19T08:53:55;25.70;97.90
8132;DHT22;4107;49.212;9.198;2022-08-19T08:56:22;25.70;97.90
8132;DHT22;4107;49.212;9.198;2022-08-19T09:01:23;25.80;97.70
8132;DHT22;4107;49.212;9.198;2022-08-19T09:03:49;25.80;97.60
8132;DHT22;4107;49.212;9.198;2022-08-19T09:09:05;25.90;97.90
8132;DHT22;4107;49.212;9.198;2022-08-19T09:14:34;26.00;97.70
8132;DHT22;4107;49.212;9.198;2022-08-19T09:17:03;26.00;98.00
8132;DHT22;4107;49.212;9.198;2022-08-19T09:19:29;26.10;97.60
8132;DHT22;4107;49.212;9.198;2022-08-19T09:21:55;26.10;97.20
8132;DHT22;4107;49.212;9.198;2022-08-19T09:24:21;26.20;97.30
8132;DHT22;4107;49.212;9.198;2022-08-19T09:26:46;26.20;97.30
8132;DHT22;4107;49.212;9.198;2022-08-19T09:29:13;26.10;97.50
8132;DHT22;4107;49.212;9.198;2022-08-19T09:31:46;26.10;97.50
8132;DHT22;4107;49.212;9.198;2022-08-19T09:34:11;26.20;97.70
8132;DHT22;4107;49.212;9.198;2022-08-19T09:36:37;26.10;97.40
8132;DHT22;4107;49.212;9.198;2022-08-19T09:39:05;26.10;96.70
8132;DHT22;4107;49.212;9.198;2022-08-19T09:41:31;25.90;96.00
8132;DHT22;4107;49.212;9.198;2022-08-19T09:44:05;25.60;96.30
8132;DHT22;4107;49.212;9.198;2022-08-19T09:46:31;25.40;95.80
8132;DHT22;4107;49.212;9.198;2022-08-19T09:48:59;25.40;95.70
8132;DHT22;4107;49.212;9.198;2022-08-19T09:51:26;25.40;95.50
8132;DHT22;4107;49.212;9.198;2022-08-19T09:53:54;25.50;95.70
8132;DHT22;4107;49.212;9.198;2022-08-19T09:56:21;25.70;95.60
8132;DHT22;4107;49.212;9.198;2022-08-19T09:58:48;25.90;95.50
8132;DHT22;4107;49.212;9.198;2022-08-19T10:01:19;26.00;94.60
8132;DHT22;4107;49.212;9.198;2022-08-19T10:03:47;26.10;94.60
8132;DHT22;4107;49.212;9.198;2022-08-19T10:06:13;26.20;94.20
8132;DHT22;4107;49.212;9.198;2022-08-19T10:08:40;26.30;94.30
8132;DHT22;4107;49.212;9.198;2022-08-19T10:11:06;26.50;94.20
8132;DHT22;4107;49.212;9.198;2022-08-19T10:13:32;27.00;94.20
8132;DHT22;4107;49.212;9.198;2022-08-19T10:16:06;27.40;93.80
8132;DHT22;4107;49.212;9.198;2022-08-19T10:18:33;27.60;93.20
8132;DHT22;4107;49.212;9.198;2022-08-19T10:26:07;29.10;90.90
8132;DHT22;4107;49.212;9.198;2022-08-19T10:28:34;29.10;91.00
8132;DHT22;4107;49.212;9.198;2022-08-19T10:31:14;29.00;90.90
8132;DHT22;4107;49.212;9.198;2022-08-19T10:33:40;28.90;90.20
8132;DHT22;4107;49.212;9.198;2022-08-19T10:36:11;29.00;91.20
8132;DHT22;4107;49.212;9.198;2022-08-19T10:38:37;29.20;90.80
8132;DHT22;4107;49.212;9.198;2022-08-19T10:41:15;29.30;90.20
8132;DHT22;4107;49.212;9.198;2022-08-19T10:43:41;29.40;89.70
8132;DHT22;4107;49.212;9.198;2022-08-19T10:46:10;29.30;89.40
8132;DHT22;4107;49.212;9.198;2022-08-19T10:48:36;29.40;89.70
8132;DHT22;4107;49.212;9.198;2022-08-19T10:51:02;29.60;88.80
8132;DHT22;4107;49.212;9.198;2022-08-19T10:53:46;29.50;87.50
8132;DHT22;4107;49.212;9.198;2022-08-19T10:56:12;29.50;87.50
8132;DHT22;4107;49.212;9.198;2022-08-19T10:58:57;29.40;86.80
8132;DHT22;4107;49.212;9.198;2022-08-19T11:01:24;29.30;87.40
8132;DHT22;4107;49.212;9.198;2022-08-19T11:03:53;29.20;86.90
8132;DHT22;4107;49.212;9.198;2022-08-19T11:06:19;29.10;86.60
8132;DHT22;4107;49.212;9.198;2022-08-19T11:08:45;29.10;86.60
8132;DHT22;4107;49.212;9.198;2022-08-19T11:11:12;29.00;86.40
8132;DHT22;4107;49.212;9.198;2022-08-19T11:13:41;29.00;86.10
8132;DHT22;4107;49.212;9.198;2022-08-19T11:16:10;29.00;86.60
8132;DHT22;4107;49.212;9.198;2022-08-19T11:18:38;29.00;84.80
8132;DHT22;4107;49.212;9.198;2022-08-19T11:21:17;28.70;84.50
8132;DHT22;4107;49.212;9.198;2022-08-19T11:23:45;28.60;85.60
8132;DHT22;4107;49.212;9.198;2022-08-19T11:26:12;28.40;85.50
8132;DHT22;4107;49.212;9.198;2022-08-19T11:28:42;28.40;85.40
8132;DHT22;4107;49.212;9.198;2022-08-19T11:31:12;28.20;85.00
8132;DHT22;4107;49.212;9.198;2022-08-19T11:33:39;28.10;86.10
8132;DHT22;4107;49.212;9.198;2022-08-19T11:36:05;28.20;86.60
8132;DHT22;4107;49.212;9.198;2022-08-19T11:38:31;28.30;87.70
8132;DHT22;4107;49.212;9.198;2022-08-19T11:41:02;28.30;87.20
8132;DHT22;4107;49.212;9.198;2022-08-19T11:43:29;28.40;87.90
8132;DHT22;4107;49.212;9.198;2022-08-19T11:45:55;28.30;86.30
8132;DHT22;4107;49.212;9.198;2022-08-19T11:48:22;28.20;87.30
8132;DHT22;4107;49.212;9.198;2022-08-19T11:50:52;28.20;87.20
8132;DHT22;4107;49.212;9.198;2022-08-19T11:53:19;28.20;86.10
8132;DHT22;4107;49.212;9.198;2022-08-19T11:55:46;28.20;87.20
8132;DHT22;4107;49.212;9.198;2022-08-19T11:58:13;28.10;85.20
8132;DHT22;4107;49.212;9.198;2022-08-19T12:00:39;28.20;85.50
8132;DHT22;4107;49.212;9.198;2022-08-19T12:03:06;28.10;85.60
8132;DHT22;4107;49.212;9.198;2022-08-19T12:05:32;28.10;84.80
8132;DHT22;4107;49.212;9.198;2022-08-19T12:07:57;28.20;84.90
8132;DHT22;4107;49.212;9.198;2022-08-19T12:10:25;28.20;84.20
8132;DHT22;4107;49.212;9.198;2022-08-19T12:12:54;28.20;83.70
8132;DHT22;4107;49.212;9.198;2022-08-19T12:15:19;28.20;85.40
8132;DHT22;4107;49.212;9.198;2022-08-19T12:17:45;28.40;84.80
8132;DHT22;4107;49.212;9.198;2022-08-19T12:20:12;28.40;83.50
8132;DHT22;4107;49.212;9.198;2022-08-19T12:22:39;28.50;83.40
8132;DHT22;4107;49.212;9.198;2022-08-19T12:25:11;28.70;83.10
8132;DHT22;4107;49.212;9.198;2022-08-19T12:27:38;28.90;82.50
8132;DHT22;4107;49.212;9.198;2022-08-19T12:30:06;29.00;82.10
8132;DHT22;4107;49.212;9.198;2022-08-19T12:32:32;28.90;82.20
8132;DHT22;4107;49.212;9.198;2022-08-19T12:34:57;29.00;81.10
8132;DHT22;4107;49.212;9.198;2022-08-19T12:37:23;29.10;81.50
8132;DHT22;4107;49.212;9.198;2022-08-19T12:39:49;29.30;80.80
8132;DHT22;4107;49.212;9.198;2022-08-19T12:42:15;29.40;79.40
8132;DHT22;4107;49.212;9.198;2022-08-19T12:44:42;29.50;79.20
8132;DHT22;4107;49.212;9.198;2022-08-19T12:47:09;29.40;80.10
8132;DHT22;4107;49.212;9.198;2022-08-19T12:49:36;29.60;79.90
8132;DHT22;4107;49.212;9.198;2022-08-19T12:52:06;29.70;80.30
8132;DHT22;4107;49.212;9.198;2022-08-19T12:54:34;30.00;79.70
8132;DHT22;4107;49.212;9.198;2022-08-19T13:23:57;28.70;83.30
8132;DHT22;4107;49.212;9.198;2022-08-19T13:26:23;28.60;83.80
8132;DHT22;4107;49.212;9.198;2022-08-19T13:28:49;28.40;82.90
8132;DHT22;4107;49.212;9.198;2022-08-19T13:31:35;28.40;84.10
8132;DHT22;4107;49.212;9.198;2022-08-19T13:34:27;28.50;84.70
8132;DHT22;4107;49.212;9.198;2022-08-19T13:36:53;28.60;82.80
8132;DHT22;4107;49.212;9.198;2022-08-19T13:39:19;28.60;85.20
8132;DHT22;4107;49.212;9.198;2022-08-19T13:41:46;28.80;83.80
8132;DHT22;4107;49.212;9.198;2022-08-19T13:44:14;28.80;81.70
8132;DHT22;4107;49.212;9.198;2022-08-19T13:46:41;28.80;81.80
8132;DHT22;4107;49.212;9.198;2022-08-19T13:49:10;28.80;79.80
8132;DHT22;4107;49.212;9.198;2022-08-19T13:51:45;28.70;83.10
8132;DHT22;4107;49.212;9.198;2022-08-19T13:54:11;28.60;84.40
8132;DHT22;4107;49.212;9.198;2022-08-19T13:56:44;28.60;84.90
8132;DHT22;4107;49.212;9.198;2022-08-19T13:59:11;28.50;79.60
8132;DHT22;4107;49.212;9.198;2022-08-19T14:01:37;28.50;80.10
8132;DHT22;4107;49.212;9.198;2022-08-19T14:04:07;28.40;81.80
8132;DHT22;4107;49.212;9.198;2022-08-19T14:06:33;28.40;83.90
8132;DHT22;4107;49.212;9.198;2022-08-19T14:08:59;28.40;81.90
8132;DHT22;4107;49.212;9.198;2022-08-19T14:11:25;28.30;81.50
8132;DHT22;4107;49.212;9.198;2022-08-19T14:13:51;28.20;80.90
8132;DHT22;4107;49.212;9.198;2022-08-19T14:16:17;28.20;81.70
8132;DHT22;4107;49.212;9.198;2022-08-19T14:18:43;28.10;81.00
8132;DHT22;4107;49.212;9.198;2022-08-19T14:21:17;28.10;82.20
8132;DHT22;4107;49.212;9.198;2022-08-19T14:23:45;28.00;83.20
8132;DHT22;4107;49.212;9.198;2022-08-19T14:26:14;28.00;81.10
8132;DHT22;4107;49.212;9.198;2022-08-19T14:28:41;27.90;79.90
8132;DHT22;4107;49.212;9.198;2022-08-19T14:31:11;27.90;78.90
8132;DHT22;4107;49.212;9.198;2022-08-19T14:33:37;28.00;79.10
8132;DHT22;4107;49.212;9.198;2022-08-19T14:36:03;28.10;80.20
8132;DHT22;4107;49.212;9.198;2022-08-19T14:38:29;28.30;78.90
8132;DHT22;4107;49.212;9.198;2022-08-19T14:41:15;28.40;77.10
8132;DHT22;4107;49.212;9.198;2022-08-19T14:43:43;28.40;78.30
8132;DHT22;4107;49.212;9.198;2022-08-19T14:46:12;28.40;78.90
8132;DHT22;4107;49.212;9.198;2022-08-19T14:48:38;28.40;78.60
8132;DHT22;4107;49.212;9.198;2022-08-19T14:51:05;28.30;78.50
8132;DHT22;4107;49.212;9.198;2022-08-19T14:53:31;28.40;79.70
8132;DHT22;4107;49.212;9.198;2022-08-19T14:55:59;28.30;79.10
8132;DHT22;4107;49.212;9.198;2022-08-19T14:58:25;28.20;79.90
8132;DHT22;4107;49.212;9.198;2022-08-19T15:00:50;28.20;80.70
8132;DHT22;4107;49.212;9.198;2022-08-19T15:03:16;28.20;79.20
8132;DHT22;4107;49.212;9.198;2022-08-19T15:05:41;28.10;79.10
8132;DHT22;4107;49.212;9.198;2022-08-19T15:08:07;28.10;79.50
8132;DHT22;4107;49.212;9.198;2022-08-19T15:10:33;28.00;79.70
8132;DHT22;4107;49.212;9.198;2022-08-19T15:12:59;28.00;80.00
8132;DHT22;4107;49.212;9.198;2022-08-19T15:15:26;28.00;80.30
8132;DHT22;4107;49.212;9.198;2022-08-19T15:17:53;28.00;80.80
8132;DHT22;4107;49.212;9.198;2022-08-19T15:20:20;27.90;80.30
8132;DHT22;4107;49.212;9.198;2022-08-19T15:22:48;28.00;82.60
8132;DHT22;4107;49.212;9.198;2022-08-19T15:25:18;27.90;82.60
8132;DHT22;4107;49.212;9.198;2022-08-19T15:27:44;27.90;83.00
8132;DHT22;4107;49.212;9.198;2022-08-19T15:30:11;28.00;84.60
8132;DHT22;4107;49.212;9.198;2022-08-19T15:32:38;28.20;83.20
8132;DHT22;4107;49.212;9.198;2022-08-19T15:35:06;28.30;83.80
8132;DHT22;4107;49.212;9.198;2022-08-19T15:37:41;28.40;82.80
8132;DHT22;4107;49.212;9.198;2022-08-19T15:40:07;28.50;82.60
8132;DHT22;4107;49.212;9.198;2022-08-19T15:42:35;28.70;83.90
8132;DHT22;4107;49.212;9.198;2022-08-19T15:45:03;28.90;82.10
8132;DHT22;4107;49.212;9.198;2022-08-19T15:47:29;29.10;82.40
8132;DHT22;4107;49.212;9.198;2022-08-19T15:49:55;29.20;82.10
8132;DHT22;4107;49.212;9.198;2022-08-19T15:52:24;29.30;81.50
8132;DHT22;4107;49.212;9.198;2022-08-19T15:54:49;29.30;81.30
8132;DHT22;4107;49.212;9.198;2022-08-19T15:57:15;29.30;81.20
8132;DHT22;4107;49.212;9.198;2022-08-19T15:59:47;29.20;81.80
8132;DHT22;4107;49.212;9.198;2022-08-19T16:02:42;29.20;82.50
8132;DHT22;4107;49.212;9.198;2022-08-19T16:05:26;29.20;82.10
8132;DHT22;4107;49.212;9.198;2022-08-19T16:08:10;29.20;82.00
8132;DHT22;4107;49.212;9.198;2022-08-19T16:10:37;29.20;81.70
8132;DHT22;4107;49.212;9.198;2022-08-19T16:13:04;29.10;81.70
8132;DHT22;4107;49.212;9.198;2022-08-19T16:15:35;29.10;81.70
8132;DHT22;4107;49.212;9.198;2022-08-19T16:18:00;29.00;82.90
8132;DHT22;4107;49.212;9.198;2022-08-19T16:20:32;29.00;81.80
8132;DHT22;4107;49.212;9.198;2022-08-19T16:22:58;28.90;81.50
8132;DHT22;4107;49.212;9.198;2022-08-19T16:25:25;28.90;81.70
8132;DHT22;4107;49.212;9.198;2022-08-19T16:27:55;28.80;81.70
8132;DHT22;4107;49.212;9.198;2022-08-19T16:30:21;28.70;81.80
8132;DHT22;4107;49.212;9.198;2022-08-19T16:32:56;28.60;82.60
8132;DHT22;4107;49.212;9.198;2022-08-19T16:35:22;28.60;83.30
8132;DHT22;4107;49.212;9.198;2022-08-19T16:37:48;28.50;82.50
8132;DHT22;4107;49.212;9.198;2022-08-19T16:40:14;28.40;83.30
8132;DHT22;4107;49.212;9.198;2022-08-19T16:42:40;28.40;83.80
8132;DHT22;4107;49.212;9.198;2022-08-19T16:45:14;28.20;83.90
8132;DHT22;4107;49.212;9.198;2022-08-19T16:47:43;28.10;83.70
8132;DHT22;4107;49.212;9.198;2022-08-19T16:50:09;28.00;83.60
8132;DHT22;4107;49.212;9.198;2022-08-19T16:52:35;27.90;84.70
8132;DHT22;4107;49.212;9.198;2022-08-19T16:55:02;27.80;84.90
8132;DHT22;4107;49.212;9.198;2022-08-19T16:57:35;27.70;85.20